Monday, June 25, 2018, 9:38 AM EDT
Back to Local

KBDL, Bradley International Airport

Location: Windsor Locks, CT, United States Lat: 41.933
Local Time: 9:38 AM EDT (13:38 GMT) Lon: -72.683
Time Zone: US/Eastern Elev: 173 ft

Show me the last for .
Show Decoded

2018-06-25 08:51 METAR KBDL 251251Z 35013KT 10SM FEW025 BKN032 21/16 A2992 RMK AO2 SLP132
                 T02110156 =
2018-06-25 08:32 METAR KBDL 251232Z 32007KT 10SM FEW020 SCT028 BKN033 21/16 A2992 RMK AO2
                 T02060161 =
2018-06-25 08:22 METAR KBDL 251222Z 33012G19KT 10SM FEW018 BKN028 21/16 A2991 RMK AO2 T02110161 =
2018-06-25 07:51 METAR KBDL 251151Z 33004KT 10SM FEW015 FEW030 21/16 A2990 RMK AO2 SLP124 60000
                 70137 T02060161 10206 20172 51024 =
2018-06-25 06:51 METAR KBDL 251051Z 32005KT 10SM FEW015 FEW025 FEW070 19/16 A2987 RMK AO2 SLP115
                 T01890161 =
2018-06-25 05:51 METAR KBDL 250951Z 30005KT 10SM FEW025 FEW060 FEW100 17/16 A2986 RMK AO2 SLP112
                 T01720161 =
2018-06-25 04:51 METAR KBDL 250851Z 33005KT 10SM FEW060 FEW075 17/17 A2983 RMK AO2 SLP099 60000
                 T01720167 51013 =
2018-06-25 03:51 METAR KBDL 250751Z 35010KT 10SM FEW028 SCT042 OVC055 18/17 A2983 RMK AO2 RAE07
                 SLP099 P0000 T01780167 =
2018-06-25 03:09 METAR KBDL 250709Z 34009KT 10SM SCT028 OVC035 18/17 A2983 RMK AO2 RAE07 P0000
                 T01830172 =
2018-06-25 02:51 METAR KBDL 250651Z 34007KT 8SM -RA OVC026 18/17 A2982 RMK AO2 RAB46 SLP098 P0000
                 T01830172 =
2018-06-25 01:51 METAR KBDL 250551Z 01010KT 10SM BKN022 BKN036 19/18 A2979 RMK AO2 SLP086 RAE11
                 P0000 60003 T01890178 10211 20189 58000 =
2018-06-25 01:19 METAR KBDL 250519Z COR 34009KT 10SM FEW002 BKN022 BKN085 BKN130 19/19 A2980 =
2018-06-25 00:56 METAR KBDL 250456Z COR 31005KT 5SM -RA BR FEW001 SCT002 BKN085 BKN130 20/19
                 A2979 RMK AO2 P0000 T02000194 =
2018-06-25 00:51 METAR KBDL 250451Z 30003KT 1SM R06/P6000FT -RA BCFG BR SCT001 BKN002 BKN110
                 20/19 A2979 RMK AO2 SFC VIS 3 RAE33B51 SLP086 BCFG SW-N P0001 T02000194
                 402720144 =
2018-06-25 00:46 METAR KBDL 250446Z 32003KT 1SM R06/P6000FT BCFG BR SCT001 BKN002 OVC120 20/19
                 A2979 RMK AO2 SFC VIS 3 RAE33 BCFG SW-N P0001 =
2018-06-25 00:41 METAR KBDL 250441Z 32004KT 1SM R06/P6000FT BR SCT002 SCT070 OVC120 20/19 A2979
                 RMK AO2 SFC VIS 5 RAE33 P0001 T02000194 =
2018-06-24 23:51 METAR KBDL 250351Z 00000KT 9SM -RA FEW004 SCT055 BKN080 OVC130 21/20 A2980 RMK
                 AO2 RAB49 SLP089 P0000 T02060200 =
2018-06-24 23:19 METAR KBDL 250319Z 17006KT 10SM FEW005 BKN075 OVC110 21/20 A2980 RMK AO2
                 T02060200 =
2018-06-24 22:51 METAR KBDL 250251Z 27004KT 10SM SCT060 BKN075 BKN130 21/20 A2979 RMK AO2 RAE11
                 SLP086 P0000 60002 T02060200 56003 =
2018-06-24 21:51 METAR KBDL 250151Z 24005KT 7SM -RA FEW070 BKN110 BKN140 21/20 A2979 RMK AO2
                 RAB33 SLP087 P0002 T02060200 =
2018-06-24 20:51 METAR KBDL 250051Z 18006KT 10SM FEW008 SCT070 BKN095 BKN140 BKN190 21/20 A2980
                 RMK AO2 RAB19E32 SLP089 P0000 T02060200 =
2018-06-24 20:47 METAR KBDL 250047Z 20007KT 10SM SCT008 SCT055 BKN070 BKN140 BKN190 21/20 A2980
                 RMK AO2 RAB19E32 P0000 =
2018-06-24 19:51 METAR KBDL 242351Z 18004KT 10SM BKN005 BKN060 BKN090 BKN190 21/20 A2979 RMK AO2
                 RAE2255 SLP088 P0000 60134 T02110200 10272 20200 50002 =
2018-06-24 19:47 METAR KBDL 242347Z 00000KT 10SM BKN005 BKN060 BKN090 BKN190 21/20 A2980 RMK AO2
                 RAE2255 P0000 =
2018-06-24 19:36 METAR KBDL 242336Z 20005KT 10SM FEW005 SCT060 BKN090 BKN150 21/20 A2980 RMK AO2
                 RAE2255 P0000 T02110200 =
2018-06-24 18:51 METAR KBDL 242251Z 23005KT 10SM -RA SCT015 BKN090 BKN110 BKN210 21/20 A2978 RMK
                 AO2 LTG DSNT S TSE07 SLP085 PCPN VRY LGT P0011 T02110200 =
2018-06-24 18:12 METAR KBDL 242212Z 23006KT 7SM -RA SCT008 BKN044 OVC110 20/19 A2978 RMK AO2 LTG
                 DSNT NE AND E AND SW TSE07 CB DSNT E P0010 T02000194 =
2018-06-24 18:01 METAR KBDL 242201Z 22008KT 6SM -TSRA BR BKN008 BKN044CB OVC090 20/19 A2978 RMK
                 AO2 LTG DSNT NE AND E AND SW OCNL LTG ICCC OHD TS OHD MOV E P0009 T02000194 =
2018-06-24 17:51 METAR KBDL 242151Z 24006KT 1SM R06/5500VP6000FT +TSRA BR SCT008 BKN012CB OVC020
                 20/19 A2979 RMK AO2 SFC VIS 2 LTG DSNT NE AND SW RAB14 TSB2056 SLP086 OCNL LTG
                 ICCC OHD TS OHD MOV E P0119 T02000189 =
2018-06-24 17:29 METAR KBDL 242129Z VRB03G17KT 1SM R06/1400VP6000FT +TSRA BR SCT006 SCT018CB
                 OVC025 22/21 A2979 RMK AO2 LTG DSNT SW-NW RAB14 TSB2056 PRESRR OCNL LTG ICCC OHD
                 TS OHD MOV E P0094 T02170206 =
2018-06-24 17:23 METAR KBDL 242123Z 12007G17KT 060V150 1/4SM R06/1400VP6000FT +TSRA FG BKN025CB
                 OVC031 22/21 A2977 RMK AO2 LTG DSNT SW-NW RAB14 TSB2056 FRQ LTG ICCC OHD TS OHD
                 MOV E P0004 T02220206 =
2018-06-24 17:20 METAR KBDL 242120Z 35011G17KT 1SM R06/1400VP6000FT +TSRA BKN025CB OVC031 23/21
                 A2976 RMK AO2 LTG DSNT W AND NW RAB14 TSB2056 OCNL LTG ICCC OHD TS OHD MOV E
                 P0000 T02330206 =
2018-06-24 16:57 METAR KBDL 242057Z 17008KT 10SM TS BKN029CB OVC038 26/19 A2977 =
2018-06-24 16:51 METAR KBDL 242051Z 16012KT 10SM BKN029CB BKN038 OVC042 26/20 A2976 RMK AO2 LTG
                 DSNT SW AND W SLP077 CB NW-N MOV E 60004 T02560200 58008 =
2018-06-24 15:51 METAR KBDL 241951Z 17010KT 10SM SCT027CB BKN033 BKN043 BKN190 26/21 A2977 RMK
                 AO2 RAE1855B11E37 SLP079 CB NW-NE MOV E P0003 T02560206 =
2018-06-24 15:43 METAR KBDL 241943Z 16009KT 10SM SCT029CB BKN033 BKN050 BKN190 26/21 A2977 RMK
                 AO2 RAE1855B11E37 CB N MOV E P0003 T02560206 =
2018-06-24 15:14 METAR KBDL 241914Z 15011KT 7SM -RA BKN028 BKN050 BKN150 24/20 A2977 RMK AO2
                 RAE1855B11 P0000 T02390200 =
2018-06-24 14:51 METAR KBDL 241851Z 14008KT 9SM -RA BKN055 OVC070 25/20 A2978 RMK AO2 RAB32
                 SLP083 P0001 T02500200 =
2018-06-24 13:51 METAR KBDL 241751Z 17006KT 10SM FEW045 BKN070 BKN090 26/19 A2979 RMK AO2 SLP085
                 T02610189 10267 20167 58013 =
2018-06-24 12:51 METAR KBDL 241651Z 19008KT 10SM FEW015 BKN065 BKN250 26/19 A2981 RMK AO2 SLP092
                 T02610189 =
2018-06-24 11:51 METAR KBDL 241551Z 19007KT 10SM SCT014 BKN080 23/18 A2982 RMK AO2 SLP099
                 T02330183 =
2018-06-24 11:47 METAR KBDL 241547Z 19006KT 10SM SCT014 BKN080 24/19 A2982 RMK AO2 =
2018-06-24 10:51 METAR KBDL 241451Z 18005KT 10SM OVC011 21/17 A2983 RMK AO2 SLP102 T02060172
                 50002 =
2018-06-24 10:38 METAR KBDL 241438Z 19005KT 10SM OVC010 21/18 A2983 RMK AO2 T02060178 =
2018-06-24 09:51 METAR KBDL 241351Z 20004KT 9SM OVC007 19/17 A2984 RMK AO2 SLP103 T01890167 =

Support USWX by starting your Amazon purchase here.